sensor_id;sensor_type;location;lat;lon;timestamp;temperature;humidity
9223;DHT22;7557;51.698;3.942;2022-09-16T00:01:40;15.60;99.90
9223;DHT22;7557;51.698;3.942;2022-09-16T00:04:08;15.60;99.90
9223;DHT22;7557;51.698;3.942;2022-09-16T00:06:35;15.60;99.90
9223;DHT22;7557;51.698;3.942;2022-09-16T00:09:03;15.60;99.90
9223;DHT22;7557;51.698;3.942;2022-09-16T00:11:31;15.60;99.90
9223;DHT22;7557;51.698;3.942;2022-09-16T00:14:00;15.60;99.90
9223;DHT22;7557;51.698;3.942;2022-09-16T00:16:28;15.70;99.90
9223;DHT22;7557;51.698;3.942;2022-09-16T00:18:58;15.70;99.90
9223;DHT22;7557;51.698;3.942;2022-09-16T00:21:27;15.70;99.90
9223;DHT22;7557;51.698;3.942;2022-09-16T00:23:55;15.70;99.90
9223;DHT22;7557;51.698;3.942;2022-09-16T00:26:23;15.70;99.90
9223;DHT22;7557;51.698;3.942;2022-09-16T00:28:50;15.60;99.90
9223;DHT22;7557;51.698;3.942;2022-09-16T00:31:18;15.60;99.90
9223;DHT22;7557;51.698;3.942;2022-09-16T00:33:45;15.60;99.90
9223;DHT22;7557;51.698;3.942;2022-09-16T00:36:16;15.60;99.90
9223;DHT22;7557;51.698;3.942;2022-09-16T00:38:44;15.60;99.90
9223;DHT22;7557;51.698;3.942;2022-09-16T00:41:15;15.60;99.90
9223;DHT22;7557;51.698;3.942;2022-09-16T00:43:52;15.60;99.90
9223;DHT22;7557;51.698;3.942;2022-09-16T00:46:25;15.60;99.90
9223;DHT22;7557;51.698;3.942;2022-09-16T00:48:54;15.50;99.90
9223;DHT22;7557;51.698;3.942;2022-09-16T00:51:23;15.50;99.90
9223;DHT22;7557;51.698;3.942;2022-09-16T00:53:56;15.50;99.90
9223;DHT22;7557;51.698;3.942;2022-09-16T00:56:28;15.50;99.90
9223;DHT22;7557;51.698;3.942;2022-09-16T00:59:01;15.60;99.90
9223;DHT22;7557;51.698;3.942;2022-09-16T01:01:31;15.50;99.90
9223;DHT22;7557;51.698;3.942;2022-09-16T01:04:02;15.50;99.90
9223;DHT22;7557;51.698;3.942;2022-09-16T01:06:34;15.50;99.90
9223;DHT22;7557;51.698;3.942;2022-09-16T01:09:05;15.50;99.90
9223;DHT22;7557;51.698;3.942;2022-09-16T01:11:33;15.40;99.90
9223;DHT22;7557;51.698;3.942;2022-09-16T01:14:02;15.40;99.90
9223;DHT22;7557;51.698;3.942;2022-09-16T01:16:48;15.50;99.90
9223;DHT22;7557;51.698;3.942;2022-09-16T01:19:37;15.50;99.90
9223;DHT22;7557;51.698;3.942;2022-09-16T01:22:20;15.50;99.90
9223;DHT22;7557;51.698;3.942;2022-09-16T01:24:54;15.50;99.90
9223;DHT22;7557;51.698;3.942;2022-09-16T01:28:05;15.40;99.90
9223;DHT22;7557;51.698;3.942;2022-09-16T01:30:56;15.50;99.90
9223;DHT22;7557;51.698;3.942;2022-09-16T01:33:35;15.40;99.90
9223;DHT22;7557;51.698;3.942;2022-09-16T01:36:19;15.40;99.90
9223;DHT22;7557;51.698;3.942;2022-09-16T01:38:59;15.40;99.90
9223;DHT22;7557;51.698;3.942;2022-09-16T01:41:39;15.40;99.90
9223;DHT22;7557;51.698;3.942;2022-09-16T01:44:16;15.40;99.90
9223;DHT22;7557;51.698;3.942;2022-09-16T01:46:48;15.40;99.90
9223;DHT22;7557;51.698;3.942;2022-09-16T01:49:21;15.40;99.90
9223;DHT22;7557;51.698;3.942;2022-09-16T01:51:55;15.50;99.90
9223;DHT22;7557;51.698;3.942;2022-09-16T01:54:32;15.60;99.90
9223;DHT22;7557;51.698;3.942;2022-09-16T01:57:04;15.70;99.90
9223;DHT22;7557;51.698;3.942;2022-09-16T01:59:37;15.70;99.90
9223;DHT22;7557;51.698;3.942;2022-09-16T02:02:16;15.60;99.90
9223;DHT22;7557;51.698;3.942;2022-09-16T02:04:47;15.50;99.90
9223;DHT22;7557;51.698;3.942;2022-09-16T02:07:17;15.40;99.90
9223;DHT22;7557;51.698;3.942;2022-09-16T02:09:50;15.40;99.90
9223;DHT22;7557;51.698;3.942;2022-09-16T02:12:22;15.50;99.90
9223;DHT22;7557;51.698;3.942;2022-09-16T02:14:58;15.60;99.90
9223;DHT22;7557;51.698;3.942;2022-09-16T02:17:32;15.70;99.90
9223;DHT22;7557;51.698;3.942;2022-09-16T02:20:06;15.70;99.90
9223;DHT22;7557;51.698;3.942;2022-09-16T02:22:39;15.60;99.90
9223;DHT22;7557;51.698;3.942;2022-09-16T02:25:09;15.50;99.90
9223;DHT22;7557;51.698;3.942;2022-09-16T02:27:38;15.50;99.90
9223;DHT22;7557;51.698;3.942;2022-09-16T02:30:09;15.10;99.90
9223;DHT22;7557;51.698;3.942;2022-09-16T02:32:41;14.70;99.90
9223;DHT22;7557;51.698;3.942;2022-09-16T02:35:12;14.60;99.90
9223;DHT22;7557;51.698;3.942;2022-09-16T02:37:44;14.40;99.90
9223;DHT22;7557;51.698;3.942;2022-09-16T02:40:16;14.40;99.90
9223;DHT22;7557;51.698;3.942;2022-09-16T02:42:45;14.30;99.90
9223;DHT22;7557;51.698;3.942;2022-09-16T02:45:13;14.30;99.90
9223;DHT22;7557;51.698;3.942;2022-09-16T02:47:48;14.30;99.90
9223;DHT22;7557;51.698;3.942;2022-09-16T02:50:26;14.30;99.90
9223;DHT22;7557;51.698;3.942;2022-09-16T02:53:00;14.30;99.90
9223;DHT22;7557;51.698;3.942;2022-09-16T02:55:36;14.20;99.90
9223;DHT22;7557;51.698;3.942;2022-09-16T02:58:05;14.20;99.90
9223;DHT22;7557;51.698;3.942;2022-09-16T03:00:35;14.20;99.90
9223;DHT22;7557;51.698;3.942;2022-09-16T03:03:05;14.20;99.90
9223;DHT22;7557;51.698;3.942;2022-09-16T03:05:33;14.20;99.90
9223;DHT22;7557;51.698;3.942;2022-09-16T03:08:01;14.20;99.90
9223;DHT22;7557;51.698;3.942;2022-09-16T03:10:37;14.20;99.90
9223;DHT22;7557;51.698;3.942;2022-09-16T03:13:10;14.20;99.90
9223;DHT22;7557;51.698;3.942;2022-09-16T03:15:55;14.20;99.90
9223;DHT22;7557;51.698;3.942;2022-09-16T03:18:41;14.30;99.90
9223;DHT22;7557;51.698;3.942;2022-09-16T03:21:15;14.30;99.90
9223;DHT22;7557;51.698;3.942;2022-09-16T03:23:50;14.20;99.90
9223;DHT22;7557;51.698;3.942;2022-09-16T03:26:27;14.10;99.90
9223;DHT22;7557;51.698;3.942;2022-09-16T03:29:09;14.10;99.90
9223;DHT22;7557;51.698;3.942;2022-09-16T03:31:45;14.10;99.90
9223;DHT22;7557;51.698;3.942;2022-09-16T03:34:20;14.20;99.90
9223;DHT22;7557;51.698;3.942;2022-09-16T03:36:52;14.20;99.90
9223;DHT22;7557;51.698;3.942;2022-09-16T03:39:23;14.30;99.90
9223;DHT22;7557;51.698;3.942;2022-09-16T03:41:51;14.30;99.90
9223;DHT22;7557;51.698;3.942;2022-09-16T03:44:20;14.30;99.90
9223;DHT22;7557;51.698;3.942;2022-09-16T03:46:47;14.30;99.90
9223;DHT22;7557;51.698;3.942;2022-09-16T03:49:16;14.30;99.90
9223;DHT22;7557;51.698;3.942;2022-09-16T03:51:43;14.30;99.90
9223;DHT22;7557;51.698;3.942;2022-09-16T03:54:11;14.20;99.90
9223;DHT22;7557;51.698;3.942;2022-09-16T03:56:38;14.10;99.90
9223;DHT22;7557;51.698;3.942;2022-09-16T03:59:06;14.10;99.90
9223;DHT22;7557;51.698;3.942;2022-09-16T04:01:33;14.10;99.90
9223;DHT22;7557;51.698;3.942;2022-09-16T04:04:01;14.10;99.90
9223;DHT22;7557;51.698;3.942;2022-09-16T04:06:30;14.10;99.90
9223;DHT22;7557;51.698;3.942;2022-09-16T04:09:01;14.00;99.90
9223;DHT22;7557;51.698;3.942;2022-09-16T04:11:29;14.10;99.90
9223;DHT22;7557;51.698;3.942;2022-09-16T04:14:00;14.20;99.90
9223;DHT22;7557;51.698;3.942;2022-09-16T04:16:27;14.30;99.90
9223;DHT22;7557;51.698;3.942;2022-09-16T04:18:56;14.30;99.90
9223;DHT22;7557;51.698;3.942;2022-09-16T04:21:24;14.40;99.90
9223;DHT22;7557;51.698;3.942;2022-09-16T04:23:53;14.40;99.90
9223;DHT22;7557;51.698;3.942;2022-09-16T04:26:20;14.40;99.90
9223;DHT22;7557;51.698;3.942;2022-09-16T04:28:50;14.40;99.90
9223;DHT22;7557;51.698;3.942;2022-09-16T04:31:18;14.40;99.90
9223;DHT22;7557;51.698;3.942;2022-09-16T04:33:45;14.40;99.90
9223;DHT22;7557;51.698;3.942;2022-09-16T04:36:17;14.40;99.90
9223;DHT22;7557;51.698;3.942;2022-09-16T04:38:46;14.50;99.90
9223;DHT22;7557;51.698;3.942;2022-09-16T04:41:19;14.50;99.90
9223;DHT22;7557;51.698;3.942;2022-09-16T04:43:50;14.50;99.90
9223;DHT22;7557;51.698;3.942;2022-09-16T04:46:19;14.40;99.90
9223;DHT22;7557;51.698;3.942;2022-09-16T04:48:47;14.50;99.90
9223;DHT22;7557;51.698;3.942;2022-09-16T04:51:14;14.40;99.90
9223;DHT22;7557;51.698;3.942;2022-09-16T04:53:42;14.60;99.90
9223;DHT22;7557;51.698;3.942;2022-09-16T04:56:11;14.60;99.90
9223;DHT22;7557;51.698;3.942;2022-09-16T04:58:42;14.60;99.90
9223;DHT22;7557;51.698;3.942;2022-09-16T05:01:12;14.70;99.90
9223;DHT22;7557;51.698;3.942;2022-09-16T05:03:40;14.60;99.90
9223;DHT22;7557;51.698;3.942;2022-09-16T05:06:10;14.60;99.90
9223;DHT22;7557;51.698;3.942;2022-09-16T05:08:38;14.50;99.90
9223;DHT22;7557;51.698;3.942;2022-09-16T05:11:07;14.40;99.90
9223;DHT22;7557;51.698;3.942;2022-09-16T05:13:34;14.30;99.90
9223;DHT22;7557;51.698;3.942;2022-09-16T05:16:05;14.20;99.90
9223;DHT22;7557;51.698;3.942;2022-09-16T05:18:33;14.30;99.90
9223;DHT22;7557;51.698;3.942;2022-09-16T05:21:03;14.20;99.90
9223;DHT22;7557;51.698;3.942;2022-09-16T05:23:31;14.20;99.90
9223;DHT22;7557;51.698;3.942;2022-09-16T05:26:02;14.20;99.90
9223;DHT22;7557;51.698;3.942;2022-09-16T05:28:30;14.10;99.90
9223;DHT22;7557;51.698;3.942;2022-09-16T05:31:09;14.10;99.90
9223;DHT22;7557;51.698;3.942;2022-09-16T05:33:37;14.20;99.90
9223;DHT22;7557;51.698;3.942;2022-09-16T05:36:05;14.20;99.90
9223;DHT22;7557;51.698;3.942;2022-09-16T05:38:33;14.20;99.90
9223;DHT22;7557;51.698;3.942;2022-09-16T05:41:01;14.20;99.90
9223;DHT22;7557;51.698;3.942;2022-09-16T05:43:29;14.20;99.90
9223;DHT22;7557;51.698;3.942;2022-09-16T05:45:57;14.30;99.90
9223;DHT22;7557;51.698;3.942;2022-09-16T05:48:26;14.40;99.90
9223;DHT22;7557;51.698;3.942;2022-09-16T05:50:55;14.40;99.90
9223;DHT22;7557;51.698;3.942;2022-09-16T05:53:24;14.40;99.90
9223;DHT22;7557;51.698;3.942;2022-09-16T05:55:56;14.50;99.90
9223;DHT22;7557;51.698;3.942;2022-09-16T05:58:24;14.50;99.90
9223;DHT22;7557;51.698;3.942;2022-09-16T06:00:57;14.50;99.90
9223;DHT22;7557;51.698;3.942;2022-09-16T06:03:27;14.40;99.90
9223;DHT22;7557;51.698;3.942;2022-09-16T06:05:59;14.40;99.90
9223;DHT22;7557;51.698;3.942;2022-09-16T06:08:28;14.50;99.90
9223;DHT22;7557;51.698;3.942;2022-09-16T06:10:56;14.50;99.90
9223;DHT22;7557;51.698;3.942;2022-09-16T06:13:26;14.50;99.90
9223;DHT22;7557;51.698;3.942;2022-09-16T06:15:54;14.60;99.90
9223;DHT22;7557;51.698;3.942;2022-09-16T06:18:22;14.70;99.90
9223;DHT22;7557;51.698;3.942;2022-09-16T06:20:52;14.70;99.90
9223;DHT22;7557;51.698;3.942;2022-09-16T06:23:19;14.80;99.90
9223;DHT22;7557;51.698;3.942;2022-09-16T06:25:47;14.80;99.90
9223;DHT22;7557;51.698;3.942;2022-09-16T06:28:15;14.80;99.90
9223;DHT22;7557;51.698;3.942;2022-09-16T06:30:42;14.80;99.90
9223;DHT22;7557;51.698;3.942;2022-09-16T06:33:10;14.90;99.90
9223;DHT22;7557;51.698;3.942;2022-09-16T06:35:37;14.90;99.90
9223;DHT22;7557;51.698;3.942;2022-09-16T06:38:06;14.90;99.90
9223;DHT22;7557;51.698;3.942;2022-09-16T06:40:34;14.80;99.90
9223;DHT22;7557;51.698;3.942;2022-09-16T06:43:01;14.80;99.90
9223;DHT22;7557;51.698;3.942;2022-09-16T06:45:28;14.80;99.90
9223;DHT22;7557;51.698;3.942;2022-09-16T06:47:58;14.80;99.90
9223;DHT22;7557;51.698;3.942;2022-09-16T06:50:26;14.80;99.90
9223;DHT22;7557;51.698;3.942;2022-09-16T06:52:53;14.90;99.90
9223;DHT22;7557;51.698;3.942;2022-09-16T06:55:22;14.90;99.90
9223;DHT22;7557;51.698;3.942;2022-09-16T06:57:50;14.80;99.90
9223;DHT22;7557;51.698;3.942;2022-09-16T07:00:17;14.90;99.90
9223;DHT22;7557;51.698;3.942;2022-09-16T07:02:45;14.90;99.90
9223;DHT22;7557;51.698;3.942;2022-09-16T07:05:12;14.90;99.90
9223;DHT22;7557;51.698;3.942;2022-09-16T07:07:40;14.90;99.90
9223;DHT22;7557;51.698;3.942;2022-09-16T07:10:08;14.90;99.90
9223;DHT22;7557;51.698;3.942;2022-09-16T07:12:37;15.00;99.90
9223;DHT22;7557;51.698;3.942;2022-09-16T07:15:05;15.00;99.90
9223;DHT22;7557;51.698;3.942;2022-09-16T07:17:33;15.00;99.90
9223;DHT22;7557;51.698;3.942;2022-09-16T07:20:01;15.10;99.90
9223;DHT22;7557;51.698;3.942;2022-09-16T07:22:30;15.10;99.90
9223;DHT22;7557;51.698;3.942;2022-09-16T07:24:58;15.20;99.90
9223;DHT22;7557;51.698;3.942;2022-09-16T07:27:25;15.10;99.90
9223;DHT22;7557;51.698;3.942;2022-09-16T07:29:54;15.10;99.90
9223;DHT22;7557;51.698;3.942;2022-09-16T07:32:22;15.00;99.90
9223;DHT22;7557;51.698;3.942;2022-09-16T07:34:49;15.00;99.90
9223;DHT22;7557;51.698;3.942;2022-09-16T07:37:18;14.80;99.90
9223;DHT22;7557;51.698;3.942;2022-09-16T07:39:46;14.80;99.90
9223;DHT22;7557;51.698;3.942;2022-09-16T07:42:15;14.60;99.90
9223;DHT22;7557;51.698;3.942;2022-09-16T07:44:42;14.50;99.90
9223;DHT22;7557;51.698;3.942;2022-09-16T07:47:11;14.40;99.90
9223;DHT22;7557;51.698;3.942;2022-09-16T07:49:39;14.30;99.90
9223;DHT22;7557;51.698;3.942;2022-09-16T07:52:07;14.10;99.90
9223;DHT22;7557;51.698;3.942;2022-09-16T07:54:34;14.10;99.90
9223;DHT22;7557;51.698;3.942;2022-09-16T07:57:02;14.10;99.90
9223;DHT22;7557;51.698;3.942;2022-09-16T07:59:29;14.20;99.90
9223;DHT22;7557;51.698;3.942;2022-09-16T08:01:57;14.30;99.90
9223;DHT22;7557;51.698;3.942;2022-09-16T08:04:26;14.40;99.90
9223;DHT22;7557;51.698;3.942;2022-09-16T08:06:53;14.60;99.90
9223;DHT22;7557;51.698;3.942;2022-09-16T08:09:21;14.70;99.90
9223;DHT22;7557;51.698;3.942;2022-09-16T08:11:48;14.80;99.90
9223;DHT22;7557;51.698;3.942;2022-09-16T08:14:16;15.10;99.90
9223;DHT22;7557;51.698;3.942;2022-09-16T08:16:43;15.20;99.90
9223;DHT22;7557;51.698;3.942;2022-09-16T08:19:11;15.40;99.90
9223;DHT22;7557;51.698;3.942;2022-09-16T08:21:40;15.50;99.90
9223;DHT22;7557;51.698;3.942;2022-09-16T08:24:08;15.60;99.90
9223;DHT22;7557;51.698;3.942;2022-09-16T08:26:36;15.70;99.90
9223;DHT22;7557;51.698;3.942;2022-09-16T08:29:03;15.70;99.90
9223;DHT22;7557;51.698;3.942;2022-09-16T08:31:32;15.60;99.90
9223;DHT22;7557;51.698;3.942;2022-09-16T08:34:02;15.40;99.90
9223;DHT22;7557;51.698;3.942;2022-09-16T08:36:29;15.30;99.90
9223;DHT22;7557;51.698;3.942;2022-09-16T08:38:59;15.10;99.90
9223;DHT22;7557;51.698;3.942;2022-09-16T08:41:44;14.90;99.90
9223;DHT22;7557;51.698;3.942;2022-09-16T08:44:25;14.80;99.90
9223;DHT22;7557;51.698;3.942;2022-09-16T08:46:56;14.70;99.90
9223;DHT22;7557;51.698;3.942;2022-09-16T08:49:31;14.60;99.90
9223;DHT22;7557;51.698;3.942;2022-09-16T08:52:02;14.60;99.90
9223;DHT22;7557;51.698;3.942;2022-09-16T08:54:36;14.60;99.90
9223;DHT22;7557;51.698;3.942;2022-09-16T08:57:10;14.60;99.90
9223;DHT22;7557;51.698;3.942;2022-09-16T08:59:41;14.60;99.90
9223;DHT22;7557;51.698;3.942;2022-09-16T09:02:23;14.80;99.90
9223;DHT22;7557;51.698;3.942;2022-09-16T09:04:52;14.90;99.90
9223;DHT22;7557;51.698;3.942;2022-09-16T09:07:27;14.90;99.90
9223;DHT22;7557;51.698;3.942;2022-09-16T09:10:05;14.70;99.90
9223;DHT22;7557;51.698;3.942;2022-09-16T09:12:39;14.60;99.90
9223;DHT22;7557;51.698;3.942;2022-09-16T09:15:19;14.50;99.90
9223;DHT22;7557;51.698;3.942;2022-09-16T09:17:56;14.50;99.90
9223;DHT22;7557;51.698;3.942;2022-09-16T09:20:37;14.50;99.90
9223;DHT22;7557;51.698;3.942;2022-09-16T09:23:21;14.60;99.90
9223;DHT22;7557;51.698;3.942;2022-09-16T09:25:57;14.70;99.90
9223;DHT22;7557;51.698;3.942;2022-09-16T09:28:41;14.90;99.90
9223;DHT22;7557;51.698;3.942;2022-09-16T09:31:21;15.00;99.90
9223;DHT22;7557;51.698;3.942;2022-09-16T09:33:58;15.10;99.90
9223;DHT22;7557;51.698;3.942;2022-09-16T09:36:45;15.20;99.90
9223;DHT22;7557;51.698;3.942;2022-09-16T09:39:38;15.30;99.90
9223;DHT22;7557;51.698;3.942;2022-09-16T09:42:15;14.70;99.90
9223;DHT22;7557;51.698;3.942;2022-09-16T09:44:49;14.00;99.90
9223;DHT22;7557;51.698;3.942;2022-09-16T09:47:22;13.70;99.90
9223;DHT22;7557;51.698;3.942;2022-09-16T09:49:52;13.60;99.90
9223;DHT22;7557;51.698;3.942;2022-09-16T09:52:26;13.70;99.90
9223;DHT22;7557;51.698;3.942;2022-09-16T09:54:55;13.70;99.90
9223;DHT22;7557;51.698;3.942;2022-09-16T09:57:35;13.70;99.90
9223;DHT22;7557;51.698;3.942;2022-09-16T10:00:10;13.80;99.90
9223;DHT22;7557;51.698;3.942;2022-09-16T10:02:41;14.00;99.90
9223;DHT22;7557;51.698;3.942;2022-09-16T10:05:14;14.00;99.90
9223;DHT22;7557;51.698;3.942;2022-09-16T10:07:44;14.10;99.90
9223;DHT22;7557;51.698;3.942;2022-09-16T10:10:13;14.10;99.90
9223;DHT22;7557;51.698;3.942;2022-09-16T10:12:43;14.10;99.90
9223;DHT22;7557;51.698;3.942;2022-09-16T10:15:20;14.20;99.90
9223;DHT22;7557;51.698;3.942;2022-09-16T10:17:48;14.30;99.90
9223;DHT22;7557;51.698;3.942;2022-09-16T10:20:25;14.40;99.90
9223;DHT22;7557;51.698;3.942;2022-09-16T10:22:58;14.50;99.90
9223;DHT22;7557;51.698;3.942;2022-09-16T10:25:28;14.50;99.90
9223;DHT22;7557;51.698;3.942;2022-09-16T10:27:59;14.50;99.90
9223;DHT22;7557;51.698;3.942;2022-09-16T10:30:29;14.40;99.90
9223;DHT22;7557;51.698;3.942;2022-09-16T10:33:01;14.20;99.90
9223;DHT22;7557;51.698;3.942;2022-09-16T10:35:29;14.00;99.90
9223;DHT22;7557;51.698;3.942;2022-09-16T10:38:00;13.80;99.90
9223;DHT22;7557;51.698;3.942;2022-09-16T10:40:28;13.70;99.90
9223;DHT22;7557;51.698;3.942;2022-09-16T10:43:01;13.50;99.90
9223;DHT22;7557;51.698;3.942;2022-09-16T10:45:33;13.40;99.90
9223;DHT22;7557;51.698;3.942;2022-09-16T10:48:05;13.30;99.90
9223;DHT22;7557;51.698;3.942;2022-09-16T10:50:33;13.30;99.90
9223;DHT22;7557;51.698;3.942;2022-09-16T10:53:00;13.40;99.90
9223;DHT22;7557;51.698;3.942;2022-09-16T10:55:34;13.50;99.90
9223;DHT22;7557;51.698;3.942;2022-09-16T10:58:08;13.70;99.90
9223;DHT22;7557;51.698;3.942;2022-09-16T11:00:43;13.80;99.90
9223;DHT22;7557;51.698;3.942;2022-09-16T11:03:36;13.90;99.90
9223;DHT22;7557;51.698;3.942;2022-09-16T11:06:17;14.00;99.90
9223;DHT22;7557;51.698;3.942;2022-09-16T11:08:57;14.00;99.90
9223;DHT22;7557;51.698;3.942;2022-09-16T11:11:40;14.00;99.90
9223;DHT22;7557;51.698;3.942;2022-09-16T11:14:20;13.90;99.90
9223;DHT22;7557;51.698;3.942;2022-09-16T11:20:17;13.70;99.90
9223;DHT22;7557;51.698;3.942;2022-09-16T11:22:56;13.70;99.90
9223;DHT22;7557;51.698;3.942;2022-09-16T11:25:41;13.80;99.90
9223;DHT22;7557;51.698;3.942;2022-09-16T11:28:33;13.80;99.90
9223;DHT22;7557;51.698;3.942;2022-09-16T11:31:10;13.80;99.90
9223;DHT22;7557;51.698;3.942;2022-09-16T11:33:47;14.00;99.90
9223;DHT22;7557;51.698;3.942;2022-09-16T11:36:35;14.10;99.90
9223;DHT22;7557;51.698;3.942;2022-09-16T11:39:14;14.30;99.90
9223;DHT22;7557;51.698;3.942;2022-09-16T11:41:48;14.40;99.90
9223;DHT22;7557;51.698;3.942;2022-09-16T11:44:34;14.50;99.90
9223;DHT22;7557;51.698;3.942;2022-09-16T11:47:21;14.70;99.90
9223;DHT22;7557;51.698;3.942;2022-09-16T11:50:06;14.80;99.90
9223;DHT22;7557;51.698;3.942;2022-09-16T11:52:47;14.90;99.90
9223;DHT22;7557;51.698;3.942;2022-09-16T11:55:28;15.00;99.90
9223;DHT22;7557;51.698;3.942;2022-09-16T11:58:01;15.10;99.90
9223;DHT22;7557;51.698;3.942;2022-09-16T12:00:32;15.10;99.90
9223;DHT22;7557;51.698;3.942;2022-09-16T12:03:04;15.10;99.90
9223;DHT22;7557;51.698;3.942;2022-09-16T12:05:40;15.10;99.90
9223;DHT22;7557;51.698;3.942;2022-09-16T12:08:14;15.10;99.90
9223;DHT22;7557;51.698;3.942;2022-09-16T12:10:50;15.00;99.90
9223;DHT22;7557;51.698;3.942;2022-09-16T12:13:21;15.00;99.90
9223;DHT22;7557;51.698;3.942;2022-09-16T12:15:53;15.00;99.90
9223;DHT22;7557;51.698;3.942;2022-09-16T12:18:26;15.00;99.90
9223;DHT22;7557;51.698;3.942;2022-09-16T12:21:04;15.10;99.90
9223;DHT22;7557;51.698;3.942;2022-09-16T12:23:37;15.10;99.90
9223;DHT22;7557;51.698;3.942;2022-09-16T12:26:08;14.90;99.90
9223;DHT22;7557;51.698;3.942;2022-09-16T12:28:43;14.60;99.90
9223;DHT22;7557;51.698;3.942;2022-09-16T12:31:20;14.30;99.90
9223;DHT22;7557;51.698;3.942;2022-09-16T12:33:53;14.20;99.90
9223;DHT22;7557;51.698;3.942;2022-09-16T12:36:25;14.10;99.90
9223;DHT22;7557;51.698;3.942;2022-09-16T12:38:56;14.10;99.90
9223;DHT22;7557;51.698;3.942;2022-09-16T12:41:48;14.10;99.90
9223;DHT22;7557;51.698;3.942;2022-09-16T12:44:44;14.30;99.90
9223;DHT22;7557;51.698;3.942;2022-09-16T12:53:49;14.90;99.90
9223;DHT22;7557;51.698;3.942;2022-09-16T12:56:33;15.00;99.90
9223;DHT22;7557;51.698;3.942;2022-09-16T13:02:14;15.20;99.90
9223;DHT22;7557;51.698;3.942;2022-09-16T13:04:43;15.30;99.90
9223;DHT22;7557;51.698;3.942;2022-09-16T13:07:21;15.40;99.90
9223;DHT22;7557;51.698;3.942;2022-09-16T13:09:59;15.50;99.90
9223;DHT22;7557;51.698;3.942;2022-09-16T13:12:27;15.50;99.90
9223;DHT22;7557;51.698;3.942;2022-09-16T13:14:57;15.40;99.90
9223;DHT22;7557;51.698;3.942;2022-09-16T13:17:30;15.40;99.90
9223;DHT22;7557;51.698;3.942;2022-09-16T13:20:13;15.40;99.90
9223;DHT22;7557;51.698;3.942;2022-09-16T13:22:58;15.50;99.90
9223;DHT22;7557;51.698;3.942;2022-09-16T13:25:29;15.50;99.90
9223;DHT22;7557;51.698;3.942;2022-09-16T13:28:00;15.50;99.90
9223;DHT22;7557;51.698;3.942;2022-09-16T13:30:33;15.20;99.90
9223;DHT22;7557;51.698;3.942;2022-09-16T13:33:23;15.00;99.90
9223;DHT22;7557;51.698;3.942;2022-09-16T13:36:03;15.00;99.90
9223;DHT22;7557;51.698;3.942;2022-09-16T13:38:40;15.10;99.90
9223;DHT22;7557;51.698;3.942;2022-09-16T13:41:10;15.10;99.90
9223;DHT22;7557;51.698;3.942;2022-09-16T13:43:50;15.10;99.90
9223;DHT22;7557;51.698;3.942;2022-09-16T13:46:30;15.20;99.90
9223;DHT22;7557;51.698;3.942;2022-09-16T13:49:13;15.20;99.90
9223;DHT22;7557;51.698;3.942;2022-09-16T13:51:44;15.20;99.90
9223;DHT22;7557;51.698;3.942;2022-09-16T13:54:24;15.00;99.90
9223;DHT22;7557;51.698;3.942;2022-09-16T13:57:11;14.90;99.90
9223;DHT22;7557;51.698;3.942;2022-09-16T13:59:55;14.80;99.90
9223;DHT22;7557;51.698;3.942;2022-09-16T14:02:34;14.60;99.90
9223;DHT22;7557;51.698;3.942;2022-09-16T14:05:30;14.70;99.90
9223;DHT22;7557;51.698;3.942;2022-09-16T14:08:06;14.90;99.90
9223;DHT22;7557;51.698;3.942;2022-09-16T14:10:45;15.00;99.90
9223;DHT22;7557;51.698;3.942;2022-09-16T14:13:18;15.10;99.90
9223;DHT22;7557;51.698;3.942;2022-09-16T14:15:48;15.10;99.90
9223;DHT22;7557;51.698;3.942;2022-09-16T14:18:20;15.10;99.90
9223;DHT22;7557;51.698;3.942;2022-09-16T14:20:59;14.70;99.90
9223;DHT22;7557;51.698;3.942;2022-09-16T14:23:28;14.30;99.90
9223;DHT22;7557;51.698;3.942;2022-09-16T14:26:09;14.00;99.90
9223;DHT22;7557;51.698;3.942;2022-09-16T14:28:36;13.70;99.90
9223;DHT22;7557;51.698;3.942;2022-09-16T14:31:07;13.70;99.90
9223;DHT22;7557;51.698;3.942;2022-09-16T14:33:39;13.70;99.90
9223;DHT22;7557;51.698;3.942;2022-09-16T14:36:10;13.70;99.90
9223;DHT22;7557;51.698;3.942;2022-09-16T14:38:41;13.70;99.90
9223;DHT22;7557;51.698;3.942;2022-09-16T14:41:17;13.80;99.90
9223;DHT22;7557;51.698;3.942;2022-09-16T14:43:45;13.80;99.90
9223;DHT22;7557;51.698;3.942;2022-09-16T14:46:12;13.90;99.90
9223;DHT22;7557;51.698;3.942;2022-09-16T14:48:42;13.90;99.90
9223;DHT22;7557;51.698;3.942;2022-09-16T14:51:17;14.00;99.90
9223;DHT22;7557;51.698;3.942;2022-09-16T14:53:54;14.10;99.90
9223;DHT22;7557;51.698;3.942;2022-09-16T14:56:24;14.20;99.90
9223;DHT22;7557;51.698;3.942;2022-09-16T14:58:52;14.30;99.90
9223;DHT22;7557;51.698;3.942;2022-09-16T15:01:23;14.40;99.90
9223;DHT22;7557;51.698;3.942;2022-09-16T15:03:54;14.40;99.90
9223;DHT22;7557;51.698;3.942;2022-09-16T15:06:26;14.50;99.90
9223;DHT22;7557;51.698;3.942;2022-09-16T15:08:58;14.60;99.90
9223;DHT22;7557;51.698;3.942;2022-09-16T15:11:32;14.60;99.90
9223;DHT22;7557;51.698;3.942;2022-09-16T15:14:14;14.60;99.90
9223;DHT22;7557;51.698;3.942;2022-09-16T15:16:45;14.50;99.90
9223;DHT22;7557;51.698;3.942;2022-09-16T15:19:18;14.40;99.90
9223;DHT22;7557;51.698;3.942;2022-09-16T15:21:46;14.30;99.90
9223;DHT22;7557;51.698;3.942;2022-09-16T15:24:18;14.20;99.90
9223;DHT22;7557;51.698;3.942;2022-09-16T15:26:47;14.20;99.90
9223;DHT22;7557;51.698;3.942;2022-09-16T15:29:27;14.10;99.90
9223;DHT22;7557;51.698;3.942;2022-09-16T15:32:12;14.10;99.90
9223;DHT22;7557;51.698;3.942;2022-09-16T15:34:41;14.10;99.90
9223;DHT22;7557;51.698;3.942;2022-09-16T15:37:28;14.00;99.90
9223;DHT22;7557;51.698;3.942;2022-09-16T15:40:07;14.00;99.90
9223;DHT22;7557;51.698;3.942;2022-09-16T15:42:37;13.90;99.90
9223;DHT22;7557;51.698;3.942;2022-09-16T15:45:13;13.90;99.90
9223;DHT22;7557;51.698;3.942;2022-09-16T15:47:53;13.90;99.90
9223;DHT22;7557;51.698;3.942;2022-09-16T15:50:22;13.90;99.90
9223;DHT22;7557;51.698;3.942;2022-09-16T15:52:53;13.70;99.90
9223;DHT22;7557;51.698;3.942;2022-09-16T15:55:27;13.40;99.90
9223;DHT22;7557;51.698;3.942;2022-09-16T15:58:00;13.30;99.90
9223;DHT22;7557;51.698;3.942;2022-09-16T16:00:55;13.40;99.90
9223;DHT22;7557;51.698;3.942;2022-09-16T16:03:24;13.50;99.90
9223;DHT22;7557;51.698;3.942;2022-09-16T16:05:52;13.60;99.90
9223;DHT22;7557;51.698;3.942;2022-09-16T16:08:46;13.70;99.90
9223;DHT22;7557;51.698;3.942;2022-09-16T16:11:18;13.80;99.90
9223;DHT22;7557;51.698;3.942;2022-09-16T16:13:47;13.90;99.90
9223;DHT22;7557;51.698;3.942;2022-09-16T16:16:18;13.90;99.90
9223;DHT22;7557;51.698;3.942;2022-09-16T16:18:45;14.00;99.90
9223;DHT22;7557;51.698;3.942;2022-09-16T16:21:14;13.90;99.90
9223;DHT22;7557;51.698;3.942;2022-09-16T16:23:42;13.80;99.90
9223;DHT22;7557;51.698;3.942;2022-09-16T16:26:10;13.70;99.90
9223;DHT22;7557;51.698;3.942;2022-09-16T16:28:38;13.70;99.90
9223;DHT22;7557;51.698;3.942;2022-09-16T16:31:12;13.80;99.90
9223;DHT22;7557;51.698;3.942;2022-09-16T16:33:41;13.80;99.90
9223;DHT22;7557;51.698;3.942;2022-09-16T16:36:10;13.90;99.90
9223;DHT22;7557;51.698;3.942;2022-09-16T16:38:37;14.00;99.90
9223;DHT22;7557;51.698;3.942;2022-09-16T16:41:05;14.00;99.90
9223;DHT22;7557;51.698;3.942;2022-09-16T16:43:33;14.00;99.90
9223;DHT22;7557;51.698;3.942;2022-09-16T16:46:01;13.90;99.90
9223;DHT22;7557;51.698;3.942;2022-09-16T16:48:30;13.90;99.90
9223;DHT22;7557;51.698;3.942;2022-09-16T16:50:59;13.90;99.90